Time;durP1;ratioP1;P1;durP2;ratioP2;P2;SDS_P1;SDS_P2;PMS_P1;PMS_P2;Temp;Humidity;BMP_temperature;BMP_pressure;BME280_temperature;BME280_humidity;BME280_pressure;Samples;Min_cycle;Max_cycle;Signal;HPM_P1;HPM_P2
2023/12/11 00:01:07;;;;;;;28.77;3.72;;;12.40;99.90;;;;;;4955756;28;90118;-74
2023/12/11 00:03:33;;;;;;;30.67;3.55;;;12.40;99.90;;;;;;4953902;28;92961;-74
2023/12/11 00:05:58;;;;;;;28.45;4.93;;;12.50;99.90;;;;;;4971893;28;89269;-74
2023/12/11 00:08:24;;;;;;;35.92;3.67;;;12.50;99.90;;;;;;4952833;28;87981;-74
2023/12/11 00:10:50;;;;;;;31.08;4.88;;;12.50;99.90;;;;;;4953454;28;91272;-74
2023/12/11 00:13:15;;;;;;;27.90;3.83;;;12.50;99.90;;;;;;4970342;28;88826;-74
2023/12/11 00:15:41;;;;;;;22.48;4.30;;;12.40;99.90;;;;;;4952497;28;91499;-74
2023/12/11 00:18:07;;;;;;;28.98;4.03;;;12.20;99.90;;;;;;4953947;28;87615;-74
2023/12/11 00:20:33;;;;;;;30.65;3.92;;;12.10;99.90;;;;;;4952399;28;88796;-74
2023/12/11 00:22:59;;;;;;;29.23;3.45;;;12.00;99.90;;;;;;4952405;28;91431;-74
2023/12/11 00:25:26;;;;;;;30.85;5.28;;;11.90;99.90;;;;;;4952254;28;90814;-75
2023/12/11 00:27:52;;;;;;;32.45;4.22;;;11.80;99.90;;;;;;4953863;28;88574;-74
2023/12/11 00:30:18;;;;;;;32.92;5.45;;;11.80;99.90;;;;;;4952695;28;90007;-74
2023/12/11 00:32:43;;;;;;;25.92;3.88;;;11.70;99.90;;;;;;4953027;28;92334;-73
2023/12/11 00:35:09;;;;;;;29.05;4.80;;;11.70;99.90;;;;;;4953581;28;91379;-74
2023/12/11 00:37:35;;;;;;;34.63;4.43;;;11.60;99.90;;;;;;4970005;28;87527;-74
2023/12/11 00:40:04;;;;;;;29.98;3.63;;;11.50;99.90;;;;;;4970263;28;87299;-74
2023/12/11 00:42:30;;;;;;;27.52;4.47;;;11.60;99.90;;;;;;4953118;28;89960;-74
2023/12/11 00:44:55;;;;;;;23.27;3.97;;;11.60;99.90;;;;;;4971098;28;87315;-74
2023/12/11 00:47:21;;;;;;;41.00;4.80;;;11.50;99.90;;;;;;4952987;28;87767;-74
2023/12/11 00:49:47;;;;;;;35.80;4.72;;;11.50;99.90;;;;;;4969553;28;87272;-74
2023/12/11 00:52:14;;;;;;;29.40;4.22;;;11.50;99.90;;;;;;4968855;28;90047;-74
2023/12/11 00:54:40;;;;;;;35.83;4.07;;;11.50;99.90;;;;;;4968205;28;88759;-74
2023/12/11 00:57:05;;;;;;;30.10;4.30;;;11.50;99.90;;;;;;4952516;28;87393;-74
2023/12/11 00:59:31;;;;;;;26.13;3.85;;;11.50;99.90;;;;;;4952630;28;90626;-75
2023/12/11 01:01:57;;;;;;;33.97;3.53;;;11.50;99.90;;;;;;4951124;28;90099;-74
2023/12/11 01:04:22;;;;;;;34.33;4.50;;;11.50;99.90;;;;;;4949368;28;90825;-74
2023/12/11 01:06:48;;;;;;;34.17;4.78;;;11.50;99.90;;;;;;4950825;28;87851;-74
2023/12/11 01:09:14;;;;;;;28.20;4.63;;;11.50;99.90;;;;;;4969010;28;86763;-74
2023/12/11 01:11:40;;;;;;;26.77;4.18;;;11.50;99.90;;;;;;4969612;28;87742;-74
2023/12/11 01:14:06;;;;;;;26.85;3.38;;;11.60;99.90;;;;;;4952038;28;91117;-74
2023/12/11 01:16:31;;;;;;;22.42;4.63;;;11.50;99.90;;;;;;4952398;28;89136;-73
2023/12/11 01:18:57;;;;;;;36.42;5.07;;;11.50;99.90;;;;;;4951800;28;90749;-74
2023/12/11 01:21:23;;;;;;;26.05;3.25;;;11.50;99.90;;;;;;4953222;28;90978;-74
2023/12/11 01:23:48;;;;;;;32.83;5.22;;;11.50;99.90;;;;;;4951257;28;91490;-74
2023/12/11 01:26:14;;;;;;;25.08;4.22;;;11.60;99.90;;;;;;4968526;28;87803;-74
2023/12/11 01:28:40;;;;;;;30.25;4.10;;;11.60;99.90;;;;;;4969599;28;87788;-74
2023/12/11 01:31:05;;;;;;;33.85;4.53;;;11.60;99.90;;;;;;4969312;28;87926;-74
2023/12/11 01:33:31;;;;;;;30.58;4.43;;;11.60;99.90;;;;;;4969985;28;88656;-74
2023/12/11 01:35:57;;;;;;;42.65;4.18;;;11.50;99.90;;;;;;4970538;28;87907;-74
2023/12/11 01:38:22;;;;;;;30.38;4.05;;;11.50;99.90;;;;;;4951153;28;90530;-74
2023/12/11 01:40:48;;;;;;;27.45;3.65;;;11.60;99.90;;;;;;4950403;28;92497;-74
2023/12/11 01:43:16;;;;;;;22.23;3.83;;;11.50;99.90;;;;;;4967934;28;88720;-74
2023/12/11 01:45:42;;;;;;;27.50;3.03;;;11.50;99.90;;;;;;4950483;28;87411;-74
2023/12/11 01:48:09;;;;;;;22.48;4.03;;;11.50;99.90;;;;;;4969399;28;87623;-74
2023/12/11 01:50:35;;;;;;;29.85;4.40;;;11.40;99.90;;;;;;4968779;28;87803;-74
2023/12/11 01:53:01;;;;;;;26.55;3.67;;;11.40;99.90;;;;;;4951537;28;91434;-74
2023/12/11 01:55:30;;;;;;;27.15;4.40;;;11.40;99.90;;;;;;4968314;28;87738;-75
2023/12/11 01:57:56;;;;;;;30.52;4.72;;;11.50;99.90;;;;;;4951160;28;90491;-74
2023/12/11 02:00:22;;;;;;;24.10;4.05;;;11.50;99.90;;;;;;4968153;28;88584;-74
2023/12/11 02:02:49;;;;;;;31.83;4.13;;;11.40;99.90;;;;;;4968939;28;88408;-74
2023/12/11 02:05:14;;;;;;;28.60;4.63;;;11.40;99.90;;;;;;4969032;28;88974;-74
2023/12/11 02:07:40;;;;;;;26.65;4.78;;;11.40;99.90;;;;;;4951569;28;90059;-74
2023/12/11 02:10:07;;;;;;;25.27;3.88;;;11.30;99.90;;;;;;4968486;28;88108;-75
2023/12/11 02:12:33;;;;;;;29.38;3.63;;;11.30;99.90;;;;;;4969122;28;87574;-74
2023/12/11 02:14:59;;;;;;;30.17;3.50;;;11.20;99.90;;;;;;4969204;28;87990;-74
2023/12/11 02:17:24;;;;;;;27.15;3.72;;;11.20;99.90;;;;;;4950143;28;90243;-74
2023/12/11 02:19:50;;;;;;;27.38;3.67;;;11.10;99.90;;;;;;4968531;28;88018;-74
2023/12/11 02:22:16;;;;;;;27.40;3.83;;;11.20;99.90;;;;;;4951692;28;91552;-74
2023/12/11 02:24:57;;;;;;;21.70;4.20;;;11.20;99.90;;;;;;4951765;28;87276;-74
2023/12/11 02:27:23;;;;;;;26.35;4.22;;;11.20;99.90;;;;;;4968548;28;87783;-74
2023/12/11 02:29:50;;;;;;;29.35;3.53;;;11.20;99.90;;;;;;4957829;28;96997;-73
2023/12/11 02:32:16;;;;;;;26.02;3.35;;;11.30;99.90;;;;;;4950115;28;92127;-74
2023/12/11 02:34:42;;;;;;;29.20;4.03;;;11.30;99.90;;;;;;4967553;28;87783;-73
2023/12/11 02:37:08;;;;;;;29.27;3.92;;;11.30;99.90;;;;;;4950552;28;90532;-74
2023/12/11 02:39:34;;;;;;;25.80;3.50;;;11.30;99.90;;;;;;4950439;28;91510;-74
2023/12/11 02:41:59;;;;;;;26.10;4.13;;;11.30;99.90;;;;;;4969177;28;87958;-74
2023/12/11 02:44:25;;;;;;;34.50;4.20;;;11.20;99.90;;;;;;4968918;28;87765;-74
2023/12/11 02:46:50;;;;;;;28.70;4.05;;;11.30;99.90;;;;;;4951255;28;90555;-74
2023/12/11 02:49:16;;;;;;;33.92;4.82;;;11.30;99.90;;;;;;4949631;28;92139;-74
2023/12/11 02:51:42;;;;;;;29.80;3.47;;;11.30;99.90;;;;;;4949711;28;91483;-75
2023/12/11 02:54:07;;;;;;;27.05;3.42;;;11.30;99.90;;;;;;4969043;28;88824;-74
2023/12/11 02:56:33;;;;;;;32.20;3.97;;;11.30;99.90;;;;;;4968529;28;88104;-74
2023/12/11 02:58:59;;;;;;;24.80;3.50;;;11.20;99.90;;;;;;4950561;28;91450;-73
2023/12/11 03:01:24;;;;;;;24.90;4.00;;;11.30;99.90;;;;;;4967671;28;87657;-74
2023/12/11 03:03:50;;;;;;;24.52;4.82;;;11.30;99.90;;;;;;4950885;28;87703;-74
2023/12/11 03:06:18;;;;;;;26.23;5.03;;;11.30;99.90;;;;;;4952851;28;88893;-74
2023/12/11 03:08:44;;;;;;;34.08;3.33;;;11.30;99.90;;;;;;4967728;28;95511;-74
2023/12/11 03:11:10;;;;;;;23.98;3.05;;;11.40;99.90;;;;;;4971225;28;88006;-75
2023/12/11 03:13:35;;;;;;;23.65;4.32;;;11.50;99.90;;;;;;4957623;28;87524;-74
2023/12/11 03:16:01;;;;;;;25.48;3.45;;;11.50;99.90;;;;;;4970070;28;87818;-74
2023/12/11 03:18:27;;;;;;;27.35;3.40;;;11.60;99.90;;;;;;4970381;28;88622;-74
2023/12/11 03:20:52;;;;;;;30.15;4.53;;;11.60;99.90;;;;;;4972098;28;89392;-74
2023/12/11 03:23:18;;;;;;;25.77;3.03;;;11.70;99.90;;;;;;4971165;28;87956;-75
2023/12/11 03:25:43;;;;;;;26.88;3.30;;;11.70;99.90;;;;;;4953804;28;90343;-75
2023/12/11 03:28:09;;;;;;;33.63;4.30;;;11.70;99.90;;;;;;4953959;28;91473;-74
2023/12/11 03:30:35;;;;;;;27.30;3.45;;;11.70;99.90;;;;;;4952921;28;91119;-73
2023/12/11 03:33:00;;;;;;;21.63;4.00;;;11.80;99.90;;;;;;4972540;28;87553;-74
2023/12/11 03:35:26;;;;;;;30.58;3.70;;;11.70;99.90;;;;;;4953813;28;90331;-74
2023/12/11 03:37:52;;;;;;;26.80;3.97;;;11.80;99.90;;;;;;4953503;28;90224;-74
2023/12/11 03:40:17;;;;;;;32.42;3.75;;;11.80;99.90;;;;;;4969423;28;87686;-74
2023/12/11 03:42:43;;;;;;;31.17;3.80;;;11.90;99.90;;;;;;4970243;28;89065;-74
2023/12/11 03:45:09;;;;;;;27.85;3.20;;;11.90;99.90;;;;;;4954651;28;90380;-74
2023/12/11 03:47:34;;;;;;;20.92;3.28;;;11.90;99.90;;;;;;4952664;28;90396;-74
2023/12/11 03:50:00;;;;;;;26.50;4.43;;;11.80;99.90;;;;;;4952798;28;91203;-74
2023/12/11 03:52:26;;;;;;;36.38;4.88;;;11.80;99.90;;;;;;4971346;28;87395;-74
2023/12/11 03:54:52;;;;;;;19.65;3.25;;;11.80;99.90;;;;;;4952104;28;90078;-74
2023/12/11 03:57:18;;;;;;;20.20;3.05;;;11.90;99.90;;;;;;4970557;28;88244;-74
2023/12/11 03:59:43;;;;;;;19.27;3.15;;;11.80;99.90;;;;;;4952775;28;91660;-74
2023/12/11 04:02:09;;;;;;;26.33;3.15;;;11.80;99.90;;;;;;4969943;28;87588;-74
2023/12/11 04:04:35;;;;;;;23.02;2.92;;;11.90;99.90;;;;;;4970216;28;87140;-74
2023/12/11 04:07:00;;;;;;;18.15;2.40;;;11.90;99.90;;;;;;4952422;28;91217;-74
2023/12/11 04:09:27;;;;;;;18.48;2.83;;;11.80;99.90;;;;;;4953352;28;92239;-74
2023/12/11 04:11:52;;;;;;;21.10;3.45;;;11.80;99.90;;;;;;4954020;28;88315;-74
2023/12/11 04:14:18;;;;;;;23.55;2.53;;;11.80;99.90;;;;;;4952603;28;90826;-74
2023/12/11 04:16:44;;;;;;;25.77;2.70;;;11.80;99.90;;;;;;4952077;28;91187;-74
2023/12/11 04:19:11;;;;;;;23.77;3.25;;;11.80;99.90;;;;;;4969692;28;87664;-74
2023/12/11 04:21:37;;;;;;;21.35;3.13;;;11.80;99.90;;;;;;4951860;28;87142;-74
2023/12/11 04:24:03;;;;;;;25.75;3.60;;;11.80;99.90;;;;;;4953834;28;89001;-73
2023/12/11 04:26:29;;;;;;;28.33;3.65;;;11.70;99.90;;;;;;4969179;28;89874;-74
2023/12/11 04:28:55;;;;;;;30.63;3.97;;;11.70;99.90;;;;;;4953509;28;90954;-74
2023/12/11 04:31:23;;;;;;;29.23;3.92;;;11.70;99.90;;;;;;4951979;28;89226;-74
2023/12/11 04:33:49;;;;;;;26.70;3.05;;;11.80;99.90;;;;;;4952526;28;90951;-74
2023/12/11 04:36:15;;;;;;;24.40;3.17;;;11.70;99.90;;;;;;4952754;28;91665;-74
2023/12/11 04:38:41;;;;;;;20.08;2.55;;;11.70;99.90;;;;;;4951983;28;90992;-74
2023/12/11 04:41:06;;;;;;;25.02;3.63;;;11.70;99.90;;;;;;4952477;28;87133;-74
2023/12/11 04:43:33;;;;;;;19.30;3.17;;;11.60;99.90;;;;;;4952431;28;89786;-74
2023/12/11 04:45:59;;;;;;;31.95;3.75;;;11.30;99.90;;;;;;4952614;28;91245;-74
2023/12/11 04:48:25;;;;;;;17.67;2.90;;;11.00;99.90;;;;;;4952730;28;90882;-74
2023/12/11 04:50:50;;;;;;;27.90;3.50;;;10.80;99.90;;;;;;4952435;28;87955;-74
2023/12/11 04:53:16;;;;;;;23.50;3.30;;;10.60;99.90;;;;;;4951687;28;88943;-74
2023/12/11 04:55:42;;;;;;;27.83;3.90;;;10.50;99.90;;;;;;4951978;28;92552;-74
2023/12/11 04:58:08;;;;;;;24.40;3.22;;;10.40;99.90;;;;;;4951901;28;92375;-74
2023/12/11 05:00:33;;;;;;;29.58;4.13;;;10.30;99.90;;;;;;4952982;28;87504;-74
2023/12/11 05:02:59;;;;;;;25.40;3.45;;;10.30;99.90;;;;;;4970391;28;87193;-74
2023/12/11 05:05:24;;;;;;;26.98;3.65;;;10.30;99.90;;;;;;4970268;28;87787;-75
2023/12/11 05:07:50;;;;;;;19.70;4.15;;;10.30;99.90;;;;;;4951915;28;91625;-74
2023/12/11 05:10:16;;;;;;;21.77;3.22;;;10.30;99.90;;;;;;4953053;28;87851;-74
2023/12/11 05:12:41;;;;;;;23.60;3.50;;;10.30;99.90;;;;;;4953625;28;90064;-74
2023/12/11 05:15:07;;;;;;;24.25;3.67;;;10.30;99.90;;;;;;4953141;28;91086;-74
2023/12/11 05:17:33;;;;;;;23.15;3.55;;;10.30;99.90;;;;;;4952163;28;91890;-74
2023/12/11 05:19:59;;;;;;;26.95;3.20;;;10.30;99.90;;;;;;4968366;28;88187;-74
2023/12/11 05:22:25;;;;;;;19.10;2.85;;;10.20;99.90;;;;;;4951044;28;90801;-74
2023/12/11 05:24:51;;;;;;;27.40;3.45;;;10.30;99.90;;;;;;4951013;28;91028;-74
2023/12/11 05:27:17;;;;;;;23.33;3.55;;;10.30;99.90;;;;;;4967321;28;91199;-74
2023/12/11 05:29:42;;;;;;;19.50;2.13;;;10.30;99.90;;;;;;4952166;28;88248;-74
2023/12/11 05:32:10;;;;;;;16.70;2.00;;;10.30;99.90;;;;;;4951461;28;89290;-74
2023/12/11 05:34:36;;;;;;;22.02;2.58;;;10.20;99.90;;;;;;4951448;28;91295;-74
2023/12/11 05:37:01;;;;;;;19.33;2.50;;;10.20;99.90;;;;;;4969598;28;88614;-74
2023/12/11 05:39:27;;;;;;;15.13;1.70;;;10.20;99.90;;;;;;4951854;28;88304;-73
2023/12/11 05:41:53;;;;;;;17.15;2.13;;;10.20;99.90;;;;;;4952277;28;89700;-74
2023/12/11 05:44:18;;;;;;;26.25;2.75;;;10.20;99.90;;;;;;4968728;28;89170;-74
2023/12/11 05:46:44;;;;;;;24.30;3.00;;;10.20;99.90;;;;;;4952438;28;92378;-74
2023/12/11 05:49:10;;;;;;;28.45;3.10;;;10.20;99.90;;;;;;4969938;28;88118;-74
2023/12/11 05:51:36;;;;;;;22.27;2.65;;;10.20;99.90;;;;;;4952887;28;89915;-74
2023/12/11 05:54:02;;;;;;;18.15;2.58;;;10.20;99.90;;;;;;4953470;28;91912;-74
2023/12/11 05:56:28;;;;;;;24.40;3.60;;;10.30;99.90;;;;;;4971900;28;87615;-74
2023/12/11 05:58:54;;;;;;;15.18;2.33;;;10.30;99.90;;;;;;4955539;28;87652;-75
2023/12/11 06:01:20;;;;;;;22.00;3.13;;;10.30;99.90;;;;;;4955147;28;88994;-74
2023/12/11 06:03:45;;;;;;;21.98;2.38;;;10.30;99.90;;;;;;4955078;28;91551;-74
2023/12/11 06:06:15;;;;;;;25.40;3.13;;;10.30;99.90;;;;;;4955028;28;91589;-74
2023/12/11 06:08:42;;;;;;;20.30;2.95;;;10.30;99.90;;;;;;4952650;28;88356;-74
2023/12/11 06:11:07;;;;;;;21.88;2.80;;;10.30;99.90;;;;;;4952312;28;90308;-74
2023/12/11 06:13:33;;;;;;;24.58;2.45;;;10.30;99.90;;;;;;4951970;28;92252;-74
2023/12/11 06:15:59;;;;;;;27.08;3.83;;;10.20;99.90;;;;;;4952169;28;91846;-74
2023/12/11 06:18:25;;;;;;;21.23;2.55;;;10.30;99.90;;;;;;4952072;28;87500;-73
2023/12/11 06:20:50;;;;;;;23.17;3.63;;;10.20;99.90;;;;;;4951875;28;88736;-73
2023/12/11 06:23:16;;;;;;;25.00;2.63;;;10.20;99.90;;;;;;4969090;28;87797;-73
2023/12/11 06:25:42;;;;;;;22.92;2.50;;;10.20;99.90;;;;;;4950699;28;89635;-74
2023/12/11 06:28:07;;;;;;;28.02;2.78;;;10.20;99.90;;;;;;4950509;28;87820;-73
2023/12/11 06:30:33;;;;;;;15.75;3.08;;;10.20;99.90;;;;;;4950230;28;89846;-73
2023/12/11 06:32:59;;;;;;;25.35;2.90;;;10.20;99.90;;;;;;4950876;28;92450;-74
2023/12/11 06:35:24;;;;;;;20.95;3.50;;;10.20;99.90;;;;;;4950272;28;92544;-73
2023/12/11 06:37:50;;;;;;;20.92;2.50;;;10.30;99.90;;;;;;4968038;28;87406;-73
2023/12/11 06:40:16;;;;;;;19.05;2.63;;;10.20;99.90;;;;;;4968997;28;87383;-73
2023/12/11 06:42:42;;;;;;;18.52;2.80;;;10.30;99.90;;;;;;4951679;28;91409;-74
2023/12/11 06:45:08;;;;;;;22.77;3.35;;;10.20;99.90;;;;;;4972119;28;87256;-73
2023/12/11 06:47:35;;;;;;;19.70;2.35;;;10.20;99.90;;;;;;4955222;28;87708;-74
2023/12/11 06:50:01;;;;;;;15.98;2.60;;;10.20;99.90;;;;;;4953840;28;90118;-74
2023/12/11 06:52:27;;;;;;;18.13;2.97;;;10.20;99.90;;;;;;4954153;28;92151;-73
2023/12/11 06:54:53;;;;;;;15.40;3.45;;;10.20;99.90;;;;;;4954599;28;89420;-75
2023/12/11 06:57:18;;;;;;;17.35;2.80;;;10.30;99.90;;;;;;4972064;28;89001;-74
2023/12/11 06:59:44;;;;;;;16.45;2.97;;;10.30;99.90;;;;;;4954239;28;89441;-73
2023/12/11 07:02:10;;;;;;;22.60;4.25;;;10.30;99.90;;;;;;4953573;28;92020;-73
2023/12/11 07:04:35;;;;;;;18.13;2.47;;;10.30;99.90;;;;;;4953097;28;91329;-74
2023/12/11 07:07:01;;;;;;;19.65;2.88;;;10.30;99.90;;;;;;4953558;28;87570;-73
2023/12/11 07:09:29;;;;;;;26.75;3.60;;;10.30;99.90;;;;;;4969038;28;89952;-73
2023/12/11 07:11:55;;;;;;;22.08;3.15;;;10.30;99.90;;;;;;4953542;28;92016;-73
2023/12/11 07:14:22;;;;;;;29.80;3.45;;;10.30;99.90;;;;;;4953104;28;90928;-73
2023/12/11 07:16:48;;;;;;;25.50;3.28;;;10.30;99.90;;;;;;4970650;28;87884;-73
2023/12/11 07:19:13;;;;;;;18.30;2.90;;;10.30;99.90;;;;;;4970121;28;87421;-74
2023/12/11 07:21:45;;;;;;;19.95;3.40;;;10.30;99.90;;;;;;4951721;28;92439;-75
2023/12/11 07:24:11;;;;;;;23.30;3.45;;;10.30;99.90;;;;;;4953488;28;91148;-74
2023/12/11 07:26:37;;;;;;;25.58;3.78;;;10.30;99.90;;;;;;4952612;28;87627;-74
2023/12/11 07:29:04;;;;;;;28.10;4.18;;;10.30;99.90;;;;;;4952386;28;90490;-74
2023/12/11 07:31:30;;;;;;;23.02;4.40;;;10.30;99.90;;;;;;4951196;28;90235;-75
2023/12/11 07:33:56;;;;;;;24.02;3.97;;;10.30;99.90;;;;;;4952625;28;91203;-74
2023/12/11 07:36:23;;;;;;;27.23;3.97;;;10.30;99.90;;;;;;4954862;28;87933;-74
2023/12/11 07:38:49;;;;;;;26.10;3.40;;;10.30;99.90;;;;;;4954763;28;90870;-74
2023/12/11 07:41:22;;;;;;;28.27;3.58;;;10.30;99.90;;;;;;4968907;28;91406;-73
2023/12/11 07:43:48;;;;;;;26.58;3.78;;;10.40;99.90;;;;;;4953052;28;92171;-73
2023/12/11 07:46:21;;;;;;;21.05;3.88;;;10.40;99.90;;;;;;4953582;28;88675;-73
2023/12/11 07:48:47;;;;;;;28.58;4.18;;;10.30;99.90;;;;;;4970952;28;87662;-73
2023/12/11 07:51:20;;;;;;;29.30;3.45;;;10.40;99.90;;;;;;4970520;28;88711;-73
2023/12/11 07:53:47;;;;;;;25.02;3.70;;;10.40;99.90;;;;;;4952395;28;91101;-73
2023/12/11 07:56:23;;;;;;;25.15;4.85;;;10.30;99.90;;;;;;4951492;28;87853;-73
2023/12/11 07:58:53;;;;;;;33.28;4.28;;;10.30;99.90;;;;;;4953738;28;88472;-74
2023/12/11 08:01:19;;;;;;;19.02;3.40;;;10.30;99.90;;;;;;4953061;28;91517;-74
2023/12/11 08:03:45;;;;;;;29.98;3.47;;;10.30;99.90;;;;;;4972264;28;88096;-74
2023/12/11 08:06:11;;;;;;;28.30;3.20;;;10.30;99.90;;;;;;4954180;28;87692;-75
2023/12/11 08:08:43;;;;;;;23.63;3.20;;;10.30;99.90;;;;;;4969642;28;88090;-74
2023/12/11 08:11:21;;;;;;;18.10;2.50;;;10.30;99.90;;;;;;4951964;28;91308;-74
2023/12/11 08:13:47;;;;;;;27.60;5.55;;;10.30;99.90;;;;;;4953499;28;91989;-74
2023/12/11 08:16:13;;;;;;;33.45;3.97;;;10.30;99.90;;;;;;4968929;28;87935;-73
2023/12/11 08:18:41;;;;;;;23.13;3.30;;;10.40;99.90;;;;;;4942986;28;89253;-75
2023/12/11 08:21:06;;;;;;;41.90;4.55;;;10.40;99.90;;;;;;4947172;28;91994;-74
2023/12/11 08:23:32;;;;;;;30.92;6.18;;;10.40;99.90;;;;;;4946890;28;91409;-75
2023/12/11 08:25:58;;;;;;;32.25;4.32;;;10.40;99.90;;;;;;4946415;28;87879;-74
2023/12/11 08:28:24;;;;;;;34.70;3.97;;;10.40;99.90;;;;;;4946184;28;90082;-74
2023/12/11 08:30:50;;;;;;;32.65;4.30;;;10.40;99.90;;;;;;4960777;28;88686;-74
2023/12/11 08:33:15;;;;;;;27.23;3.80;;;10.40;99.90;;;;;;4943489;28;91232;-76
2023/12/11 08:35:41;;;;;;;28.20;4.22;;;10.50;99.90;;;;;;4963189;28;88561;-74
2023/12/11 08:38:07;;;;;;;26.15;4.30;;;10.50;99.90;;;;;;4945771;28;89950;-74
2023/12/11 08:40:32;;;;;;;34.35;3.90;;;10.50;99.90;;;;;;4963191;28;89326;-73
2023/12/11 08:42:58;;;;;;;27.90;3.47;;;10.50;99.90;;;;;;4939771;28;91333;-73
2023/12/11 08:45:24;;;;;;;33.05;4.55;;;10.60;99.90;;;;;;4962537;28;87982;-74
2023/12/11 08:47:50;;;;;;;22.83;3.28;;;10.60;99.90;;;;;;4945766;28;88977;-75
2023/12/11 08:50:16;;;;;;;38.20;6.03;;;10.60;99.90;;;;;;4959810;28;88957;-74
2023/12/11 08:52:44;;;;;;;33.25;5.35;;;10.60;99.90;;;;;;4963273;28;87759;-74
2023/12/11 08:55:09;;;;;;;20.90;2.78;;;10.70;99.90;;;;;;4968228;28;87975;-73
2023/12/11 08:57:35;;;;;;;27.30;4.10;;;10.70;99.90;;;;;;4952262;28;90251;-74
2023/12/11 09:00:03;;;;;;;29.55;3.33;;;10.70;99.90;;;;;;4969582;28;89616;-74
2023/12/11 09:02:28;;;;;;;30.23;4.32;;;10.80;99.90;;;;;;4951683;28;92706;-74
2023/12/11 09:04:54;;;;;;;31.42;4.10;;;10.80;99.90;;;;;;4968918;28;87597;-74
2023/12/11 09:07:20;;;;;;;35.78;4.15;;;10.80;99.90;;;;;;4951485;28;90569;-74
2023/12/11 09:09:45;;;;;;;30.90;4.45;;;10.80;99.90;;;;;;4952366;28;90211;-74
2023/12/11 09:12:11;;;;;;;29.02;3.42;;;10.80;99.90;;;;;;4970743;28;88864;-74
2023/12/11 09:14:37;;;;;;;26.55;3.75;;;10.80;99.90;;;;;;4951890;28;87341;-74
2023/12/11 09:17:03;;;;;;;26.38;4.07;;;10.80;99.90;;;;;;4951691;28;89051;-74
2023/12/11 09:19:28;;;;;;;25.75;3.60;;;10.90;99.90;;;;;;4948868;28;90917;-74
2023/12/11 09:21:54;;;;;;;31.38;4.32;;;10.90;99.90;;;;;;4967483;28;88927;-74
2023/12/11 09:24:20;;;;;;;29.95;3.85;;;10.90;99.90;;;;;;4968558;28;88188;-74
2023/12/11 09:26:45;;;;;;;25.58;4.00;;;10.90;99.90;;;;;;4968707;28;87969;-74
2023/12/11 09:29:11;;;;;;;25.73;4.00;;;10.90;99.90;;;;;;4950947;28;91281;-75
2023/12/11 09:31:39;;;;;;;27.75;4.30;;;10.90;99.90;;;;;;4947675;28;90246;-74
2023/12/11 09:34:04;;;;;;;27.27;3.15;;;10.90;99.90;;;;;;4945581;28;87991;-74
2023/12/11 09:36:30;;;;;;;19.83;3.25;;;11.00;99.90;;;;;;4944358;28;89897;-74
2023/12/11 09:38:58;;;;;;;24.20;3.42;;;10.90;99.90;;;;;;4945894;28;90265;-74
2023/12/11 09:41:32;;;;;;;28.17;3.85;;;10.90;99.90;;;;;;4942963;28;91490;-74
2023/12/11 09:44:00;;;;;;;34.17;3.72;;;11.00;99.90;;;;;;4943440;28;88264;-74
2023/12/11 09:46:27;;;;;;;27.52;4.05;;;11.00;99.90;;;;;;4956342;28;90639;-74
2023/12/11 09:48:52;;;;;;;29.60;3.83;;;10.90;99.90;;;;;;4950151;28;90948;-74
2023/12/11 09:51:18;;;;;;;21.90;3.17;;;10.90;99.90;;;;;;4968304;28;88595;-74
2023/12/11 09:53:45;;;;;;;28.38;4.10;;;11.00;99.90;;;;;;4951372;28;87333;-74
2023/12/11 09:56:15;;;;;;;25.70;3.83;;;11.00;99.90;;;;;;4950992;28;90291;-75
2023/12/11 09:58:42;;;;;;;30.38;3.30;;;11.00;99.90;;;;;;4950502;28;91204;-75
2023/12/11 10:01:11;;;;;;;30.67;5.70;;;11.00;99.90;;;;;;4951562;28;91561;-73
2023/12/11 10:03:36;;;;;;;23.45;3.42;;;11.00;99.90;;;;;;4968426;28;88182;-74
2023/12/11 10:06:05;;;;;;;26.40;3.55;;;11.00;99.90;;;;;;4951623;28;90087;-73
2023/12/11 10:08:40;;;;;;;22.15;3.33;;;11.00;99.90;;;;;;4967465;28;87638;-74
2023/12/11 10:11:12;;;;;;;31.25;3.38;;;10.90;99.90;;;;;;4949562;28;91328;-73
2023/12/11 10:13:39;;;;;;;26.15;3.28;;;11.00;99.90;;;;;;4948823;28;89369;-74
2023/12/11 10:16:07;;;;;;;30.88;3.20;;;11.00;99.90;;;;;;4966661;28;89264;-73
2023/12/11 10:18:46;;;;;;;25.27;2.90;;;11.00;99.90;;;;;;4967254;28;87986;-74
2023/12/11 10:21:12;;;;;;;21.75;2.40;;;11.00;99.90;;;;;;4954800;28;90815;-74
2023/12/11 10:23:37;;;;;;;22.00;2.72;;;11.00;99.90;;;;;;4954431;28;87381;-74
2023/12/11 10:26:07;;;;;;;21.02;3.40;;;11.10;99.90;;;;;;4953146;28;90773;-74
2023/12/11 10:28:33;;;;;;;23.42;3.00;;;11.10;99.90;;;;;;4954323;28;90263;-79
2023/12/11 10:31:04;;;;;;;22.92;2.85;;;11.10;99.90;;;;;;4953069;28;91169;-74
2023/12/11 10:33:30;;;;;;;22.52;3.63;;;11.10;99.90;;;;;;4971487;28;87460;-74
2023/12/11 10:36:15;;;;;;;23.50;2.92;;;11.10;99.90;;;;;;4955543;28;90305;-75
2023/12/11 10:38:42;;;;;;;23.15;3.17;;;11.10;99.90;;;;;;4953582;28;93173;-75
2023/12/11 10:41:09;;;;;;;16.75;4.20;;;11.10;99.90;;;;;;4953445;28;91167;-75
2023/12/11 10:43:42;;;;;;;23.00;2.28;;;11.10;99.90;;;;;;4971187;28;87453;-74
2023/12/11 10:46:08;;;;;;;30.08;3.05;;;11.10;99.90;;;;;;4954310;28;91380;-75
2023/12/11 10:48:37;;;;;;;17.55;2.10;;;11.20;99.90;;;;;;4942804;28;90166;-74
2023/12/11 10:51:06;;;;;;;24.70;3.47;;;11.10;99.90;;;;;;4954086;28;91835;-74
2023/12/11 10:53:35;;;;;;;21.02;4.68;;;11.20;99.90;;;;;;4953637;28;87336;-75
2023/12/11 10:56:02;;;;;;;16.63;2.65;;;11.20;99.90;;;;;;4953522;28;90710;-75
2023/12/11 10:58:28;;;;;;;20.73;2.55;;;11.10;99.90;;;;;;4952120;28;91674;-74
2023/12/11 11:01:01;;;;;;;21.33;2.70;;;11.10;99.90;;;;;;4952146;28;91086;-74
2023/12/11 11:03:29;;;;;;;29.52;3.78;;;11.10;99.90;;;;;;4967742;28;88857;-76
2023/12/11 11:05:56;;;;;;;23.67;2.78;;;11.00;99.90;;;;;;4953935;28;90027;-74
2023/12/11 11:08:40;;;;;;;31.23;3.20;;;11.00;99.90;;;;;;4953199;28;92217;-75
2023/12/11 11:11:29;;;;;;;33.22;4.97;;;10.90;99.90;;;;;;4959666;28;91713;-74
2023/12/11 11:14:36;;;;;;;24.08;3.35;;;10.90;99.90;;;;;;4970175;28;87281;-75
2023/12/11 11:17:02;;;;;;;26.27;2.88;;;10.80;99.90;;;;;;4952257;28;90752;-76
2023/12/11 11:19:29;;;;;;;19.33;2.00;;;10.80;99.90;;;;;;4970323;28;88815;-74
2023/12/11 11:22:03;;;;;;;24.10;2.60;;;10.80;99.90;;;;;;4953771;28;91682;-73
2023/12/11 11:24:30;;;;;;;24.75;4.15;;;10.70;99.90;;;;;;4955134;28;87233;-73
2023/12/11 11:26:57;;;;;;;20.63;3.17;;;10.70;99.90;;;;;;4971666;28;87912;-75
2023/12/11 11:29:39;;;;;;;21.85;2.10;;;10.70;99.90;;;;;;4952558;28;90983;-74
2023/12/11 11:32:05;;;;;;;19.07;2.20;;;10.80;99.90;;;;;;4951551;28;92540;-75
2023/12/11 11:34:40;;;;;;;25.60;2.92;;;10.80;99.90;;;;;;4953686;28;87930;-74
2023/12/11 11:37:13;;;;;;;14.50;1.75;;;10.80;99.90;;;;;;4953438;28;90614;-74
2023/12/11 11:40:31;;;;;;;15.75;1.88;;;10.90;99.90;;;;;;4969601;28;88423;-74
2023/12/11 11:42:57;;;;;;;19.27;3.53;;;10.90;99.90;;;;;;4871017;28;88113;-77
2023/12/11 11:45:23;;;;;;;15.50;2.75;;;10.90;99.90;;;;;;4872295;28;87894;-74
2023/12/11 11:47:51;;;;;;;27.20;2.17;;;11.00;99.90;;;;;;4918227;28;90537;-74
2023/12/11 11:50:18;;;;;;;26.45;3.00;;;11.00;99.90;;;;;;4971274;28;88290;-74
2023/12/11 11:52:47;;;;;;;16.10;2.13;;;11.00;99.90;;;;;;4971007;28;87914;-74
2023/12/11 11:55:25;;;;;;;18.23;2.33;;;11.10;99.90;;;;;;4951657;28;88664;-74
2023/12/11 11:57:51;;;;;;;19.50;2.50;;;11.10;99.90;;;;;;4951756;28;87597;-74
2023/12/11 12:00:25;;;;;;;14.77;1.73;;;11.20;99.90;;;;;;4970619;28;88116;-74
2023/12/11 12:03:04;;;;;;;14.82;1.63;;;11.20;99.90;;;;;;4952976;28;94059;-74
2023/12/11 12:05:30;;;;;;;13.07;1.88;;;11.30;99.90;;;;;;4952612;28;87957;-73
2023/12/11 12:07:56;;;;;;;17.92;3.03;;;11.30;99.90;;;;;;4952098;28;90463;-74
2023/12/11 12:10:22;;;;;;;18.63;2.10;;;11.30;99.90;;;;;;4969335;28;88321;-75
2023/12/11 12:12:55;;;;;;;18.27;2.25;;;11.40;99.90;;;;;;4952072;28;91512;-73
2023/12/11 12:15:21;;;;;;;15.02;2.25;;;11.40;99.90;;;;;;4953549;28;88219;-74
2023/12/11 12:17:46;;;;;;;11.55;1.55;;;11.40;99.90;;;;;;4951656;28;88990;-73
2023/12/11 12:20:13;;;;;;;16.77;1.90;;;11.50;99.90;;;;;;4967724;28;89101;-74
2023/12/11 12:22:52;;;;;;;12.52;1.90;;;11.60;99.90;;;;;;4966241;28;88115;-75
2023/12/11 12:25:18;;;;;;;14.68;1.65;;;11.60;99.90;;;;;;4968632;28;87073;-74
2023/12/11 12:27:44;;;;;;;12.50;1.77;;;11.60;99.90;;;;;;4969319;28;87583;-74
2023/12/11 12:30:10;;;;;;;13.15;2.20;;;11.70;99.90;;;;;;4953714;28;91508;-74
2023/12/11 12:32:36;;;;;;;11.98;2.22;;;11.70;99.90;;;;;;4952270;28;92519;-74
2023/12/11 12:35:04;;;;;;;14.23;2.00;;;11.70;99.90;;;;;;4953559;28;87712;-73